Time;durP1;ratioP1;P1;durP2;ratioP2;P2;SDS_P1;SDS_P2;PMS_P1;PMS_P2;Temp;Humidity;BMP_temperature;BMP_pressure;BME280_temperature;BME280_humidity;BME280_pressure;Samples;Min_cycle;Max_cycle;Signal;HPM_P1;HPM_P2
2022/02/09 00:09:09;;;;;;;;;35.75;29.75;;;;;9.41;70.74;102784.75;5072551;27;49717;-68
2022/02/09 00:11:50;;;;;;;;;38.25;35.75;;;;;8.95;70.79;102703.47;5054611;28;49716;-68
2022/02/09 00:19:35;;;;;;;;;48.00;39.50;;;;;9.47;70.94;102800.84;5072292;27;49909;-68
2022/02/09 00:38:15;;;;;;;;;42.50;37.00;;;;;8.09;71.21;102586.63;5072109;27;49865;-68
2022/02/09 01:56:23;;;;;;;;;30.00;26.75;;;;;8.68;70.43;102775.16;5071074;28;49794;-67
2022/02/09 01:58:49;;;;;;;;;31.25;28.25;;;;;8.58;70.17;102752.75;5071112;27;49700;-67
2022/02/09 02:01:15;;;;;;;;;34.25;29.25;;;;;8.66;70.38;102777.69;5070401;28;50665;-67
2022/02/09 02:03:41;;;;;;;;;24.75;24.25;;;;;7.11;70.29;102512.66;5071136;28;49872;-67
2022/02/09 02:06:06;;;;;;;;;28.50;25.25;;;;;8.12;70.98;102675.75;5070814;28;49786;-68
2022/02/09 02:08:33;;;;;;;;;29.50;27.00;;;;;8.59;70.55;102757.19;5071019;27;49710;-68
2022/02/09 02:11:24;;;;;;;;;27.75;24.25;;;;;8.57;69.73;102762.31;5070650;27;51189;-68
2022/02/09 02:18:42;;;;;;;;;24.25;23.25;;;;;8.00;70.68;102666.31;5070869;28;49970;-68
2022/02/09 02:47:27;;;;;;;;;28.25;23.25;;;;;8.24;70.66;102703.56;5070432;28;50037;-68
2022/02/09 03:12:16;;;;;;;;;29.50;27.25;;;;;8.11;70.48;102702.72;5070025;28;49787;-69
2022/02/09 03:14:49;;;;;;;;;27.50;26.25;;;;;7.67;70.01;102630.28;5068799;28;50463;-67
2022/02/09 03:17:19;;;;;;;;;25.75;22.25;;;;;7.66;70.17;102642.44;5069845;28;49819;-67
2022/02/09 03:22:22;;;;;;;;;29.25;24.75;;;;;8.01;70.31;102678.63;5070011;28;49719;-68
2022/02/09 03:30:50;;;;;;;;;30.50;22.50;;;;;7.18;70.32;102523.59;5069924;28;49925;-67
2022/02/09 03:46:47;;;;;;;;;26.50;23.75;;;;;7.85;70.44;102639.25;5069208;28;49792;-68
2022/02/09 03:49:27;;;;;;;;;32.00;27.75;;;;;7.67;70.49;102614.59;5064746;28;49919;-67
2022/02/09 03:52:43;;;;;;;;;32.75;28.75;;;;;7.33;70.79;102543.63;5072980;28;49838;-69
2022/02/09 03:54:55;;;;;;;;;31.00;27.75;;;;;6.25;69.77;102371.53;5070349;27;50011;-68
2022/02/09 03:57:24;;;;;;;;;32.75;29.50;;;;;7.74;70.11;102624.63;5072381;27;50390;-67
2022/02/09 03:59:50;;;;;;;;;22.00;22.00;;;;;7.22;69.63;102583.84;5072587;27;49847;-68
2022/02/09 04:02:15;;;;;;;;;29.00;28.50;;;;;6.49;69.97;102460.00;5072738;28;50010;-68
2022/02/09 04:04:41;;;;;;;;;27.75;22.75;;;;;7.69;70.51;102644.34;5072985;28;49758;-68
2022/02/09 04:07:08;;;;;;;;;34.00;29.00;;;;;7.75;70.86;102643.00;5072462;28;50893;-68
2022/02/09 04:09:38;;;;;;;;;35.50;30.75;;;;;7.69;70.79;102637.38;5072283;28;49728;-68
2022/02/09 04:12:13;;;;;;;;;30.75;28.25;;;;;7.71;70.06;102637.47;5072308;27;49609;-68
2022/02/09 04:14:51;;;;;;;;;29.75;25.50;;;;;6.39;70.12;102444.56;5072793;27;50043;-68
2022/02/09 04:17:29;;;;;;;;;31.25;30.00;;;;;7.63;70.66;102615.22;5072389;27;50332;-67
2022/02/09 04:41:46;;;;;;;;;32.75;30.25;;;;;6.93;71.28;102535.91;5071917;28;49866;-67
2022/02/09 04:47:17;;;;;;;;;32.25;27.50;;;;;7.42;70.19;102623.50;5071929;28;49686;-67
2022/02/09 04:50:30;;;;;;;;;33.50;30.75;;;;;7.50;70.53;102654.44;5071875;27;49992;-68
2022/02/09 04:58:03;;;;;;;;;40.00;33.50;;;;;7.35;70.93;102623.94;5072435;28;49858;-68
2022/02/09 05:01:22;;;;;;;;;31.00;26.25;;;;;7.11;70.32;102589.31;5071122;28;49783;-67
2022/02/09 05:22:46;;;;;;;;;29.75;29.75;;;;;6.69;69.83;102545.69;5071262;27;49845;-67
2022/02/09 05:25:38;;;;;;;;;34.50;31.50;;;;;5.24;70.23;102305.78;5071282;27;49748;-68
2022/02/09 05:28:21;;;;;;;;;27.50;26.50;;;;;7.22;70.34;102651.78;5070902;27;49698;-67
2022/02/09 05:30:49;;;;;;;;;37.25;33.50;;;;;7.03;70.41;102623.56;5071427;28;49833;-67
2022/02/09 05:33:14;;;;;;;;;34.00;30.00;;;;;6.95;70.29;102615.25;5071001;27;50530;-67
2022/02/09 05:35:43;;;;;;;;;31.50;31.00;;;;;7.14;70.60;102657.44;5071216;28;49877;-67
2022/02/09 05:38:12;;;;;;;;;33.25;31.00;;;;;5.14;69.90;102293.84;5071387;28;49763;-67
2022/02/09 05:40:38;;;;;;;;;38.50;37.00;;;;;5.97;70.15;102441.84;5071251;28;49590;-67
2022/02/09 05:43:04;;;;;;;;;31.50;30.50;;;;;7.01;69.40;102627.78;5070973;28;49802;-67
2022/02/09 05:45:49;;;;;;;;;35.25;32.25;;;;;6.01;69.80;102485.59;5070822;27;49885;-67
2022/02/09 05:53:36;;;;;;;;;38.75;33.25;;;;;6.67;70.02;102596.00;5070941;27;49698;-67
2022/02/09 05:56:20;;;;;;;;;40.25;35.50;;;;;5.66;70.01;102448.38;5070836;28;49828;-68
2022/02/09 05:58:50;;;;;;;;;32.50;28.00;;;;;6.97;69.79;102649.28;5074996;27;49899;-68
2022/02/09 06:01:16;;;;;;;;;27.75;25.00;;;;;6.95;70.45;102649.19;5058549;28;49877;-68
2022/02/09 06:03:41;;;;;;;;;31.50;29.75;;;;;5.36;70.17;102405.53;5070933;28;50189;-68
2022/02/09 06:06:09;;;;;;;;;38.00;32.25;;;;;6.44;70.21;102557.91;5071430;28;49799;-67
2022/02/09 06:08:38;;;;;;;;;35.50;35.00;;;;;6.49;69.92;102590.44;5070523;27;49603;-68
2022/02/09 06:11:23;;;;;;;;;40.25;37.50;;;;;6.87;70.29;102653.91;5068464;28;49921;-67
2022/02/09 06:21:53;;;;;;;;;45.50;38.00;;;;;6.80;70.53;102661.22;5064601;28;49799;-68
2022/02/09 06:24:19;;;;;;;;;51.75;43.50;;;;;6.18;71.00;102562.31;5070539;28;50959;-68
2022/02/09 06:26:44;;;;;;;;;41.50;38.75;;;;;6.75;71.05;102662.63;5070524;27;49790;-68
2022/02/09 06:29:10;;;;;;;;;38.50;36.75;;;;;6.74;71.21;102661.72;5070727;28;49725;-67
2022/02/09 06:31:37;;;;;;;;;42.75;37.75;;;;;6.73;70.78;102662.53;5070460;27;49739;-72
2022/02/09 06:34:04;;;;;;;;;43.50;37.75;;;;;5.99;70.63;102534.13;5052171;28;49819;-65
2022/02/09 06:36:31;;;;;;;;;50.25;40.75;;;;;6.68;71.25;102661.31;5074561;27;50010;-66
2022/02/09 06:39:04;;;;;;;;;45.00;37.75;;;;;6.28;70.62;102597.75;5078302;27;49829;-67
2022/02/09 06:41:29;;;;;;;;;41.50;39.00;;;;;6.42;70.61;102624.75;5071537;27;49642;-62
2022/02/09 06:43:55;;;;;;;;;51.00;41.75;;;;;6.31;70.80;102606.69;5070456;28;50281;-67
2022/02/09 06:46:21;;;;;;;;;47.25;43.25;;;;;6.07;70.16;102567.59;5053409;28;49832;-65
2022/02/09 06:48:46;;;;;;;;;51.00;42.00;;;;;6.15;70.47;102602.91;5070543;28;49786;-67
2022/02/09 06:51:15;;;;;;;;;46.50;38.25;;;;;5.67;70.00;102520.53;5052296;28;50101;-65
2022/02/09 06:54:00;;;;;;;;;50.00;43.00;;;;;6.42;70.27;102666.50;5075544;27;50242;-65
2022/02/09 06:56:39;;;;;;;;;57.25;46.00;;;;;5.82;70.47;102560.69;5063800;27;49873;-65
2022/02/09 06:59:14;;;;;;;;;47.00;39.50;;;;;6.25;70.14;102663.63;5064940;27;49773;-65
2022/02/09 07:01:40;;;;;;;;;57.00;44.25;;;;;6.03;70.11;102637.78;5070085;28;49554;-68
2022/02/09 07:04:05;;;;;;;;;50.00;40.75;;;;;5.21;70.05;102508.63;5071257;27;50659;-64
2022/02/09 07:06:31;;;;;;;;;52.75;45.50;;;;;5.67;69.84;102627.38;5074305;27;49763;-66
2022/02/09 07:08:57;;;;;;;;;57.75;41.50;;;;;6.04;69.67;102677.81;5069708;27;49950;-68
2022/02/09 07:11:22;;;;;;;;;56.25;47.50;;;;;6.03;70.47;102683.81;5075501;27;49874;-67
2022/02/09 07:13:47;;;;;;;;;56.25;48.00;;;;;5.36;69.74;102564.41;5052660;27;51635;-65
2022/02/09 07:16:13;;;;;;;;;51.50;42.25;;;;;5.72;70.03;102615.59;5070494;27;49798;-64
2022/02/09 07:18:39;;;;;;;;;46.75;41.50;;;;;6.01;69.35;102690.63;5073581;27;49849;-64
2022/02/09 07:21:10;;;;;;;;;59.00;47.75;;;;;5.90;69.78;102662.88;5070861;27;50166;-66
2022/02/09 07:23:45;;;;;;;;;49.50;44.00;;;;;5.99;70.02;102682.72;5069376;28;50275;-66
2022/02/09 07:26:14;;;;;;;;;52.25;45.25;;;;;5.51;69.32;102595.84;5067422;27;49630;-66
2022/02/09 07:28:41;;;;;;;;;53.25;45.00;;;;;5.34;69.43;102579.94;5072842;27;50017;-69
2022/02/09 07:31:08;;;;;;;;;57.25;45.25;;;;;5.98;69.80;102685.19;5073214;27;50003;-70
2022/02/09 07:33:38;;;;;;;;;52.00;41.75;;;;;5.90;69.42;102673.31;5073021;28;50966;-70
2022/02/09 07:36:05;;;;;;;;;51.75;45.75;;;;;5.62;68.94;102627.06;5071896;28;49801;-70
2022/02/09 07:38:30;;;;;;;;;50.25;43.50;;;;;5.68;69.71;102632.69;5072337;27;49814;-61
2022/02/09 07:41:00;;;;;;;;;58.75;47.25;;;;;5.87;69.72;102660.03;5054938;28;49975;-65
2022/02/09 07:54:02;;;;;;;;;58.25;48.75;;;;;5.72;69.98;102629.53;5072788;28;49822;-65
2022/02/09 07:56:30;;;;;;;;;59.00;45.50;;;;;4.54;69.78;102452.72;5072774;28;49704;-65
2022/02/09 07:58:57;;;;;;;;;58.25;49.25;;;;;5.73;69.78;102622.59;5072921;28;49691;-65
2022/02/09 08:01:23;;;;;;;;;55.75;47.75;;;;;5.87;69.95;102647.00;5072649;28;49722;-63
2022/02/09 08:03:49;;;;;;;;;37.25;29.50;;;;;5.83;70.02;102635.47;5072450;27;50309;-67
2022/02/09 08:06:17;;;;;;;;;61.00;46.00;;;;;4.96;70.02;102506.91;5054030;28;49842;-67
2022/02/09 08:08:43;;;;;;;;;54.50;47.50;;;;;4.11;69.87;102350.81;5072805;27;49867;-69
2022/02/09 08:11:15;;;;;;;;;48.50;42.50;;;;;4.20;70.27;102327.19;5072455;28;49930;-67
2022/02/09 08:27:24;;;;;;;;;60.75;47.75;;;;;5.09;69.59;102425.38;5069410;28;50296;-68
2022/02/09 08:34:50;;;;;;;;;56.50;44.75;;;;;4.56;69.66;102366.22;5070145;28;50033;-68
2022/02/09 08:37:16;;;;;;;;;52.50;45.50;;;;;6.18;69.54;102617.09;5072278;27;49751;-68
2022/02/09 08:39:41;;;;;;;;;66.50;53.75;;;;;6.19;70.26;102613.69;5071695;28;50088;-67
2022/02/09 08:42:07;;;;;;;;;58.00;46.25;;;;;5.49;69.71;102498.44;5072262;27;49751;-67
2022/02/09 08:44:32;;;;;;;;;64.50;50.50;;;;;5.55;69.74;102499.78;5071540;27;50603;-67
2022/02/09 08:46:57;;;;;;;;;60.75;48.00;;;;;5.67;69.78;102495.38;5071994;27;49980;-67
2022/02/09 08:49:26;;;;;;;;;57.00;46.00;;;;;4.96;69.94;102391.50;5072217;28;49754;-67
2022/02/09 08:51:51;;;;;;;;;62.00;48.25;;;;;4.59;69.94;102301.38;5072266;28;49786;-68
2022/02/09 08:54:17;;;;;;;;;57.50;45.50;;;;;5.95;69.68;102516.44;5071814;27;50088;-67
2022/02/09 08:56:42;;;;;;;;;58.00;46.50;;;;;5.54;70.32;102416.31;5071896;28;49859;-67
2022/02/09 08:59:08;;;;;;;;;63.25;50.25;;;;;5.78;70.33;102487.38;5071704;27;50041;-68
2022/02/09 09:01:43;;;;;;;;;58.00;46.25;;;;;5.69;69.36;102423.47;5071948;27;49930;-67
2022/02/09 09:04:22;;;;;;;;;64.75;50.75;;;;;4.88;69.01;102307.69;5071585;28;50851;-68
2022/02/09 09:06:55;;;;;;;;;61.25;51.25;;;;;5.85;70.04;102448.81;5071958;28;49760;-67
2022/02/09 09:17:35;;;;;;;;;64.75;50.50;;;;;7.02;69.85;102582.59;5065572;27;49966;-67
2022/02/09 10:34:13;;;;;;;;;31.75;30.00;;;;;9.49;63.34;102554.50;5070450;28;49890;-65
2022/02/09 10:36:51;;;;;;;;;37.50;31.00;;;;;9.56;62.96;102556.63;5070718;28;49814;-66
2022/02/09 10:39:22;;;;;;;;;32.25;30.75;;;;;9.42;61.63;102524.41;5070199;28;50104;-65
2022/02/09 10:42:15;;;;;;;;;33.75;28.50;;;;;9.68;62.64;102562.50;5070166;28;50729;-65
2022/02/09 10:44:48;;;;;;;;;40.50;32.00;;;;;9.72;62.72;102554.88;5066874;28;49711;-64
2022/02/09 10:47:34;;;;;;;;;42.00;38.75;;;;;9.70;62.31;102539.88;5070253;28;49724;-65
2022/02/09 10:50:12;;;;;;;;;39.00;33.75;;;;;9.84;62.16;102543.22;5070333;28;49892;-65
2022/02/09 10:52:42;;;;;;;;;45.25;37.00;;;;;9.78;61.78;102522.84;5064535;28;50512;-65
2022/02/09 10:55:42;;;;;;;;;36.25;33.00;;;;;9.93;62.22;102530.56;5070013;28;49664;-65
2022/02/09 10:58:15;;;;;;;;;39.25;33.00;;;;;9.87;62.30;102507.56;5073203;27;49833;-65
2022/02/09 11:00:46;;;;;;;;;37.25;35.75;;;;;9.99;61.57;102513.44;5073756;28;49843;-65
2022/02/09 11:03:18;;;;;;;;;36.50;35.00;;;;;9.95;60.96;102490.50;5073804;28;50634;-65
2022/02/09 11:05:45;;;;;;;;;39.25;35.75;;;;;10.16;61.00;102519.56;5073841;28;49827;-65
2022/02/09 11:08:11;;;;;;;;;38.50;35.50;;;;;10.22;61.47;102513.72;5073746;28;49846;-65
2022/02/09 11:10:36;;;;;;;;;37.75;36.25;;;;;10.25;61.76;102512.16;5073952;28;49806;-64
2022/02/09 11:13:04;;;;;;;;;37.75;34.00;;;;;9.80;60.39;102424.13;5054906;28;50318;-65
2022/02/09 11:15:30;;;;;;;;;40.75;37.75;;;;;10.24;60.24;102502.50;5073666;28;49891;-63
2022/02/09 11:17:56;;;;;;;;;41.25;38.25;;;;;10.35;58.44;102510.00;5073370;28;49809;-64
2022/02/09 11:20:28;;;;;;;;;37.00;34.50;;;;;10.37;60.46;102500.47;5073079;28;49920;-64
2022/02/09 11:22:53;;;;;;;;;48.50;36.00;;;;;10.42;60.12;102498.97;5054735;28;49789;-65
2022/02/09 11:25:42;;;;;;;;;33.50;31.50;;;;;10.48;59.18;102499.25;5073558;27;49976;-64
2022/02/09 11:28:22;;;;;;;;;30.50;28.50;;;;;10.54;58.96;102503.09;5068870;28;49693;-64
2022/02/09 11:31:22;;;;;;;;;30.50;28.25;;;;;10.51;56.93;102491.53;5072853;28;50033;-65
2022/02/09 11:34:06;;;;;;;;;33.25;31.00;;;;;10.45;57.99;102468.53;5073346;27;49870;-68
2022/02/09 11:39:21;;;;;;;;;30.75;27.75;;;;;10.53;57.99;102463.66;5073380;28;49613;-67
2022/02/09 11:41:59;;;;;;;;;36.25;31.50;;;;;10.74;57.90;102485.66;5073012;27;50053;-67
2022/02/09 11:44:53;;;;;;;;;32.25;31.00;;;;;10.75;57.62;102478.69;5071492;28;50332;-62
2022/02/09 11:47:39;;;;;;;;;31.00;31.00;;;;;10.34;57.50;102404.09;5072243;27;49798;-61
2022/02/09 11:59:07;;;;;;;;;32.25;28.50;;;;;10.55;56.73;102414.72;4985637;28;50163;-63
2022/02/09 12:10:20;;;;;;;;;39.75;32.50;;;;;10.71;57.05;102395.31;5072186;27;49850;-65
2022/02/09 12:12:53;;;;;;;;;33.00;33.00;;;;;9.74;57.21;102237.63;5072541;27;49830;-64
2022/02/09 12:16:10;;;;;;;;;28.50;28.00;;;;;10.94;57.34;102430.53;5072845;27;49752;-65
2022/02/09 12:18:38;;;;;;;;;34.75;31.00;;;;;11.15;56.99;102431.50;5072219;28;49668;-64
2022/02/09 12:21:16;;;;;;;;;31.50;27.50;;;;;10.94;57.03;102385.88;5053864;28;49914;-67
2022/02/09 12:23:45;;;;;;;;;40.25;35.00;;;;;11.27;56.65;102439.03;5066297;28;49822;-68
2022/02/09 12:26:12;;;;;;;;;33.25;30.50;;;;;11.18;56.40;102421.09;5066408;28;49641;-67
2022/02/09 12:28:40;;;;;;;;;44.00;36.75;;;;;11.23;56.42;102419.59;5065671;28;49822;-68
2022/02/09 12:31:11;;;;;;;;;35.50;31.25;;;;;11.01;55.72;102366.91;5065747;28;49698;-67
2022/02/09 12:33:42;;;;;;;;;41.25;33.50;;;;;11.21;56.54;102386.19;5066106;28;49735;-67
2022/02/09 12:36:14;;;;;;;;;37.50;33.25;;;;;11.25;56.08;102388.13;5072184;28;49968;-68
2022/02/09 12:38:41;;;;;;;;;40.50;37.00;;;;;11.49;56.49;102415.50;5071993;27;49862;-68
2022/02/09 12:41:28;;;;;;;;;35.50;32.50;;;;;11.19;56.09;102362.44;5072209;28;49669;-68
2022/02/09 12:44:07;;;;;;;;;35.25;31.00;;;;;11.45;55.97;102392.50;5071786;27;49860;-68
2022/02/09 12:46:35;;;;;;;;;33.50;31.00;;;;;11.64;56.46;102407.34;5071985;27;49825;-65
2022/02/09 12:49:12;;;;;;;;;44.00;40.00;;;;;11.63;55.24;102401.19;5071821;28;50012;-66
2022/02/09 12:51:40;;;;;;;;;31.25;28.75;;;;;11.34;55.19;102349.06;5065676;28;49893;-67
2022/02/09 12:54:08;;;;;;;;;37.25;31.75;;;;;11.60;55.41;102387.03;5071939;28;49748;-67
2022/02/09 12:56:40;;;;;;;;;57.75;47.75;;;;;11.27;55.71;102316.34;5072265;27;49801;-68
2022/02/09 12:59:10;;;;;;;;;35.75;34.00;;;;;11.76;55.49;102397.31;5070960;27;50501;-64
2022/02/09 13:01:56;;;;;;;;;28.00;27.50;;;;;11.75;55.27;102387.66;5053432;28;49943;-64
2022/02/09 13:04:35;;;;;;;;;27.50;26.50;;;;;11.58;55.36;102352.75;5072135;28;50051;-64
2022/02/09 13:07:04;;;;;;;;;34.00;31.00;;;;;11.70;55.55;102379.56;5053716;28;49772;-64
2022/02/09 13:09:29;;;;;;;;;34.00;32.50;;;;;11.61;55.37;102346.72;5071749;28;50897;-66
2022/02/09 13:11:55;;;;;;;;;30.00;30.00;;;;;11.92;55.40;102385.75;5053382;28;49983;-65
2022/02/09 13:14:29;;;;;;;;;33.00;32.00;;;;;11.86;54.40;102370.59;5071788;27;49797;-66
2022/02/09 13:17:12;;;;;;;;;32.75;29.00;;;;;11.84;54.91;102361.75;5072582;27;50212;-66
2022/02/09 13:54:27;;;;;;;;;25.50;24.25;;;;;12.24;53.55;102342.28;5075192;27;49930;-65
2022/02/09 14:10:38;;;;;;;;;22.25;22.25;;;;;12.25;51.94;102302.84;5068902;28;50031;-66
2022/02/09 14:18:47;;;;;;;;;30.75;24.75;;;;;12.38;52.34;102325.28;5069972;28;49967;-68
2022/02/09 14:35:47;;;;;;;;;20.75;19.50;;;;;12.28;52.40;102225.72;5070659;28;49600;-65
2022/02/09 14:51:42;;;;;;;;;33.00;27.00;;;;;12.52;51.48;102259.94;5070610;28;50031;-78
2022/02/09 14:54:31;;;;;;;;;34.25;31.25;;;;;12.70;51.88;102284.34;5066984;28;49670;-87
2022/02/09 14:57:02;;;;;;;;;33.00;26.00;;;;;12.69;51.51;102289.56;5070691;28;50186;-76
2022/02/09 14:59:47;;;;;;;;;27.75;27.75;;;;;12.67;51.19;102288.59;5051793;28;50351;-78
2022/02/09 15:02:23;;;;;;;;;31.50;30.00;;;;;12.42;51.44;102244.66;5063262;28;50068;-75
2022/02/09 15:12:31;;;;;;;;;29.75;28.25;;;;;12.00;51.42;102160.63;5070069;28;50000;-80
2022/02/09 15:17:39;;;;;;;;;30.75;26.75;;;;;12.59;51.17;102257.59;5069901;28;49600;-69
2022/02/09 15:22:34;;;;;;;;;34.50;31.50;;;;;12.46;51.23;102236.03;5069200;28;49621;-69
2022/02/09 15:25:01;;;;;;;;;29.00;25.75;;;;;12.63;50.90;102262.97;5069976;28;49751;-69
2022/02/09 15:27:27;;;;;;;;;26.50;25.00;;;;;12.64;50.87;102255.13;5069987;28;49906;-69
2022/02/09 15:29:53;;;;;;;;;27.75;27.25;;;;;12.64;51.17;102254.22;5069605;27;50526;-70
2022/02/09 15:32:33;;;;;;;;;24.00;24.00;;;;;12.58;51.56;102247.03;5069364;28;49795;-69
2022/02/09 15:35:05;;;;;;;;;29.25;28.00;;;;;12.59;51.60;102248.81;5069708;28;49904;-69
2022/02/09 15:37:47;;;;;;;;;25.00;23.00;;;;;12.44;50.94;102219.25;5051722;28;49735;-69
2022/02/09 15:41:11;;;;;;;;;28.75;25.25;;;;;12.38;51.26;102217.31;5064446;28;49798;-69
2022/02/09 15:56:30;;;;;;;;;30.50;27.25;;;;;12.43;51.10;102225.38;5072805;28;49841;-69
2022/02/09 16:08:07;;;;;;;;;30.75;29.00;;;;;12.42;51.73;102220.94;5072903;27;49936;-69
2022/02/09 16:23:40;;;;;;;;;27.00;23.25;;;;;12.27;52.58;102209.03;5072437;27;50005;-69
2022/02/09 16:44:59;;;;;;;;;24.25;20.00;;;;;12.00;53.61;102206.25;5072214;28;50261;-69
2022/02/09 16:52:27;;;;;;;;;24.00;22.00;;;;;11.89;54.21;102215.50;5072347;28;49860;-68
2022/02/09 17:21:18;;;;;;;;;20.75;20.75;;;;;11.43;55.97;102200.47;5071646;28;49736;-68
2022/02/09 17:23:43;;;;;;;;;21.50;19.50;;;;;11.20;56.55;102163.59;5071826;28;49991;-70
2022/02/09 17:26:12;;;;;;;;;18.50;17.75;;;;;11.20;56.74;102168.84;5071363;27;50085;-68
2022/02/09 17:28:38;;;;;;;;;21.00;21.00;;;;;11.23;56.95;102177.75;5071450;28;49773;-67
2022/02/09 17:36:18;;;;;;;;;23.00;20.75;;;;;10.88;57.80;102139.50;5071227;27;49707;-63
2022/02/09 17:57:53;;;;;;;;;20.00;15.25;;;;;10.70;59.42;102201.78;5065540;28;49825;-62
2022/02/09 18:00:19;;;;;;;;;20.75;20.50;;;;;10.70;59.75;102202.66;5069598;27;49563;-63
2022/02/09 18:02:53;;;;;;;;;20.25;17.50;;;;;10.67;59.86;102215.69;5070930;28;50282;-61
2022/02/09 18:05:24;;;;;;;;;22.25;18.75;;;;;10.44;59.93;102183.19;5071291;28;49682;-64
2022/02/09 18:07:58;;;;;;;;;19.00;16.00;;;;;10.60;59.66;102211.88;5069851;28;50003;-63
2022/02/09 18:31:56;;;;;;;;;40.00;36.00;;;;;10.34;61.62;102212.47;5061019;27;50000;-62
2022/02/09 18:34:46;;;;;;;;;49.25;40.75;;;;;10.23;62.53;102198.88;5061684;28;50447;-63
2022/02/09 18:42:54;;;;;;;;;47.00;41.00;;;;;10.21;63.24;102208.34;5070101;28;49942;-63
2022/02/09 18:45:39;;;;;;;;;54.25;39.75;;;;;10.07;63.46;102190.19;5066070;28;49861;-62
2022/02/09 19:04:35;;;;;;;;;45.50;36.00;;;;;9.86;64.15;102183.13;5070335;28;49795;-63
2022/02/09 19:17:42;;;;;;;;;50.25;40.00;;;;;9.68;65.25;102171.78;5070297;28;50078;-68
2022/02/09 19:20:25;;;;;;;;;49.50;39.00;;;;;9.62;65.34;102175.00;5073696;27;49753;-68
2022/02/09 19:31:22;;;;;;;;;42.00;37.75;;;;;9.16;66.44;102111.63;5056566;28;49978;-74
2022/02/09 19:50:29;;;;;;;;;46.25;39.75;;;;;9.31;67.25;102169.13;5073228;28;49731;-66
2022/02/09 19:52:52;;;;;;;;;55.00;44.25;;;;;8.93;67.66;102101.78;5066933;28;50062;-64
2022/02/09 19:57:55;;;;;;;;;83.33;67.00;;;;;9.23;67.43;102160.00;5073224;28;49644;-61
2022/02/09 20:00:22;;;;;;;;;74.50;59.75;;;;;9.19;67.23;102164.22;5073038;28;49735;-65
2022/02/09 20:02:48;;;;;;;;;83.25;64.75;;;;;9.08;66.87;102155.84;5073282;28;49936;-65
2022/02/09 20:05:19;;;;;;;;;79.50;59.75;;;;;8.99;67.59;102139.66;5072570;27;51402;-65
2022/02/09 20:07:45;;;;;;;;;76.50;54.00;;;;;8.66;67.88;102085.63;5073010;28;49667;-61
2022/02/09 20:10:12;;;;;;;;;46.50;39.75;;;;;8.95;67.87;102136.81;5072858;27;49770;-61
2022/02/09 20:12:41;;;;;;;;;45.75;41.75;;;;;9.02;67.51;102155.53;5073017;28;50016;-69
2022/02/09 20:15:11;;;;;;;;;52.50;45.50;;;;;8.86;68.14;102126.75;5072701;27;49727;-70
2022/02/09 20:17:38;;;;;;;;;45.75;39.00;;;;;8.57;67.50;102086.06;5072415;28;49837;-64
2022/02/09 20:20:03;;;;;;;;;50.75;41.75;;;;;8.83;67.43;102126.63;5072861;28;49977;-64
2022/02/09 20:22:29;;;;;;;;;49.50;43.50;;;;;8.89;67.52;102134.78;5072833;28;49969;-67
2022/02/09 20:24:54;;;;;;;;;48.25;39.50;;;;;8.71;68.01;102108.59;5072102;28;50178;-66
2022/02/09 20:27:22;;;;;;;;;56.75;43.75;;;;;8.91;68.76;102148.84;5072433;28;49821;-66
2022/02/09 20:29:48;;;;;;;;;57.75;48.00;;;;;8.17;68.28;102031.69;5071852;28;49806;-69
2022/02/09 20:32:22;;;;;;;;;54.00;45.00;;;;;8.35;69.46;102063.16;5072426;27;49744;-68
2022/02/09 20:34:54;;;;;;;;;57.00;46.50;;;;;8.79;68.46;102150.88;5072162;28;51399;-67
2022/02/09 20:37:21;;;;;;;;;60.00;45.00;;;;;8.68;69.61;102152.94;5072451;27;49675;-68
2022/02/09 20:39:58;;;;;;;;;54.25;44.50;;;;;8.57;69.27;102141.03;5072355;27;49775;-67
2022/02/09 20:42:24;;;;;;;;;62.50;50.00;;;;;8.48;69.00;102120.50;5072534;28;49956;-67
2022/02/09 20:44:56;;;;;;;;;57.25;45.25;;;;;8.66;68.67;102143.22;5071443;27;49787;-66
2022/02/09 20:47:22;;;;;;;;;58.00;46.50;;;;;8.55;69.17;102129.59;5066490;28;49826;-67
2022/02/09 20:49:47;;;;;;;;;47.00;37.50;;;;;8.59;68.30;102134.16;5063521;27;51542;-67
2022/02/09 20:52:15;;;;;;;;;57.00;46.75;;;;;8.62;68.81;102144.78;5046440;28;49820;-66
2022/02/09 20:54:41;;;;;;;;;63.00;49.25;;;;;8.63;69.95;102145.69;5069426;28;50533;-66
2022/02/09 20:57:07;;;;;;;;;56.25;46.75;;;;;8.50;69.65;102129.38;5070356;28;50188;-66
2022/02/09 20:59:38;;;;;;;;;59.75;48.25;;;;;8.55;68.97;102138.31;5049467;28;50107;-67
2022/02/09 21:02:19;;;;;;;;;56.50;47.00;;;;;8.65;69.56;102154.50;5071330;28;49664;-66
2022/02/09 21:04:47;;;;;;;;;59.25;50.25;;;;;8.46;69.32;102118.66;5071377;28;49790;-68
2022/02/09 21:07:25;;;;;;;;;59.50;49.25;;;;;8.22;69.26;102121.78;5069713;27;49742;-69
2022/02/09 21:09:58;;;;;;;;;57.25;48.00;;;;;8.59;69.20;102150.78;5065231;27;49911;-68
2022/02/09 21:15:26;;;;;;;;;64.50;51.00;;;;;8.57;70.10;102157.63;5071152;27;49824;-66
2022/02/09 21:21:03;;;;;;;;;64.50;52.75;;;;;8.33;70.08;102115.38;5064796;28;49640;-66
2022/02/09 21:30:14;;;;;;;;;66.75;53.50;;;;;8.35;70.32;102145.97;5070139;28;49721;-69
2022/02/09 21:45:10;;;;;;;;;59.75;49.50;;;;;7.97;70.74;102150.97;5070220;28;50035;-65
2022/02/09 21:52:02;;;;;;;;;63.00;51.75;;;;;8.04;70.60;102180.97;5069993;28;49995;-67
2022/02/09 21:58:39;;;;;;;;;59.00;47.25;;;;;7.91;70.29;102188.94;5051708;28;51203;-66
2022/02/09 22:06:50;;;;;;;;;59.75;48.00;;;;;7.56;70.69;102182.69;5066101;27;49856;-66
2022/02/09 22:20:22;;;;;;;;;55.25;44.75;;;;;7.17;70.91;102132.63;5070288;28;49720;-65
2022/02/09 22:28:04;;;;;;;;;51.25;44.00;;;;;7.12;71.26;102105.34;5062536;27;49745;-67
2022/02/09 22:49:22;;;;;;;;;56.25;45.25;;;;;7.64;70.57;102099.50;5068164;27;49864;-67
2022/02/09 22:56:57;;;;;;;;;53.50;44.75;;;;;7.69;69.64;102106.75;5070354;28;49889;-68
2022/02/09 22:59:40;;;;;;;;;54.75;45.25;;;;;7.72;69.92;102090.31;5068162;28;50003;-67
2022/02/09 23:02:20;;;;;;;;;53.25;45.50;;;;;7.77;70.21;102093.19;5069765;28;50968;-66
2022/02/09 23:05:01;;;;;;;;;57.25;44.75;;;;;7.90;69.65;102117.44;5069939;27;49882;-67
2022/02/09 23:07:41;;;;;;;;;53.50;47.25;;;;;7.85;69.69;102105.88;5070242;27;49826;-67
2022/02/09 23:10:17;;;;;;;;;62.50;50.25;;;;;7.96;69.60;102109.94;5049647;28;49798;-66
2022/02/09 23:12:54;;;;;;;;;51.25;42.75;;;;;8.00;70.06;102119.72;5069368;28;50640;-68
